Eureka, North Carolina
Current Conditions -  °F | °C
As of 9:55 PM on Tuesday 21 Oct 2014 (Local Time) from KGWW Reporting Station
Overcast Overcast  
Wind Chill: 64°   Ceiling: 9000
Heat Index: 64°   Visibility: 10mi
Dew Point: 51°   Wind: 9mph
Humidity: 63%   Direction: 340°NNW
Pressure: 29.9"   Gusts: NA
Location:  35.5277°N, 77.996°W
Report Text: KGWW 220155Z AUTO 34008KT 10SM SCT070 BKN090 OVC110 18/10 A2990 RMK AO2 T01750103
Loading
Personal Weather Stations






























Interactive Weather Map New forecast layout! Learn more

10-Day Weather Forecast

Advertisements
Track Severe Weather on mobile